sensor_id;sensor_type;location;lat;lon;timestamp;P1;durP1;ratioP1;P2;durP2;ratioP2
8285;SDS011;4181;43.416;24.598;2022-09-28T00:00:36;7.63;;;5.43;;
8285;SDS011;4181;43.416;24.598;2022-09-28T00:03:03;16.87;;;6.37;;
8285;SDS011;4181;43.416;24.598;2022-09-28T00:05:28;4.83;;;4.43;;
8285;SDS011;4181;43.416;24.598;2022-09-28T00:07:54;8.63;;;4.60;;
8285;SDS011;4181;43.416;24.598;2022-09-28T00:10:21;8.60;;;6.20;;
8285;SDS011;4181;43.416;24.598;2022-09-28T00:12:47;8.47;;;5.33;;
8285;SDS011;4181;43.416;24.598;2022-09-28T00:15:14;7.63;;;4.60;;
8285;SDS011;4181;43.416;24.598;2022-09-28T00:17:40;5.50;;;4.10;;
8285;SDS011;4181;43.416;24.598;2022-09-28T00:20:05;6.57;;;4.27;;
8285;SDS011;4181;43.416;24.598;2022-09-28T00:22:31;5.67;;;4.23;;
8285;SDS011;4181;43.416;24.598;2022-09-28T00:24:56;6.63;;;4.87;;
8285;SDS011;4181;43.416;24.598;2022-09-28T00:27:22;5.57;;;4.57;;
8285;SDS011;4181;43.416;24.598;2022-09-28T00:29:47;5.33;;;4.43;;
8285;SDS011;4181;43.416;24.598;2022-09-28T00:32:13;13.67;;;6.10;;
8285;SDS011;4181;43.416;24.598;2022-09-28T00:34:40;17.30;;;8.13;;
8285;SDS011;4181;43.416;24.598;2022-09-28T00:37:11;5.50;;;4.57;;
8285;SDS011;4181;43.416;24.598;2022-09-28T00:39:37;6.80;;;5.07;;
8285;SDS011;4181;43.416;24.598;2022-09-28T00:42:18;4.23;;;3.93;;
8285;SDS011;4181;43.416;24.598;2022-09-28T00:47:13;4.30;;;4.00;;
8285;SDS011;4181;43.416;24.598;2022-09-28T00:49:42;4.77;;;4.23;;
8285;SDS011;4181;43.416;24.598;2022-09-28T00:52:33;6.17;;;5.50;;
8285;SDS011;4181;43.416;24.598;2022-09-28T00:55:02;5.30;;;4.50;;
8285;SDS011;4181;43.416;24.598;2022-09-28T00:57:32;6.10;;;4.40;;
8285;SDS011;4181;43.416;24.598;2022-09-28T00:59:59;7.17;;;5.33;;
8285;SDS011;4181;43.416;24.598;2022-09-28T01:02:25;5.37;;;4.30;;
8285;SDS011;4181;43.416;24.598;2022-09-28T01:04:51;4.17;;;3.63;;
8285;SDS011;4181;43.416;24.598;2022-09-28T01:07:17;6.73;;;4.10;;
8285;SDS011;4181;43.416;24.598;2022-09-28T01:09:44;4.00;;;3.67;;
8285;SDS011;4181;43.416;24.598;2022-09-28T01:12:10;8.43;;;4.40;;
8285;SDS011;4181;43.416;24.598;2022-09-28T01:14:36;9.20;;;3.63;;
8285;SDS011;4181;43.416;24.598;2022-09-28T01:27:38;5.83;;;3.70;;
8285;SDS011;4181;43.416;24.598;2022-09-28T01:30:13;7.33;;;4.10;;
8285;SDS011;4181;43.416;24.598;2022-09-28T01:35:31;5.93;;;4.00;;
8285;SDS011;4181;43.416;24.598;2022-09-28T01:40:35;10.07;;;5.87;;
8285;SDS011;4181;43.416;24.598;2022-09-28T01:43:04;8.43;;;4.97;;
8285;SDS011;4181;43.416;24.598;2022-09-28T01:46:17;17.03;;;9.53;;
8285;SDS011;4181;43.416;24.598;2022-09-28T01:51:35;8.13;;;5.70;;
8285;SDS011;4181;43.416;24.598;2022-09-28T01:54:08;9.20;;;4.50;;
8285;SDS011;4181;43.416;24.598;2022-09-28T01:56:38;5.33;;;4.60;;
8285;SDS011;4181;43.416;24.598;2022-09-28T01:59:11;6.00;;;4.00;;
8285;SDS011;4181;43.416;24.598;2022-09-28T02:01:40;5.50;;;3.73;;
8285;SDS011;4181;43.416;24.598;2022-09-28T02:04:35;6.67;;;3.87;;
8285;SDS011;4181;43.416;24.598;2022-09-28T02:09:33;5.30;;;3.57;;
8285;SDS011;4181;43.416;24.598;2022-09-28T02:12:05;4.47;;;3.53;;
8285;SDS011;4181;43.416;24.598;2022-09-28T02:14:40;21.77;;;6.33;;
8285;SDS011;4181;43.416;24.598;2022-09-28T02:17:09;4.73;;;3.10;;
8285;SDS011;4181;43.416;24.598;2022-09-28T02:19:35;4.40;;;3.00;;
8285;SDS011;4181;43.416;24.598;2022-09-28T02:24:49;5.93;;;3.00;;
8285;SDS011;4181;43.416;24.598;2022-09-28T02:27:30;3.70;;;2.90;;
8285;SDS011;4181;43.416;24.598;2022-09-28T02:29:58;5.00;;;3.03;;
8285;SDS011;4181;43.416;24.598;2022-09-28T02:32:24;6.23;;;3.13;;
8285;SDS011;4181;43.416;24.598;2022-09-28T02:34:53;3.70;;;2.70;;
8285;SDS011;4181;43.416;24.598;2022-09-28T02:37:19;9.17;;;4.10;;
8285;SDS011;4181;43.416;24.598;2022-09-28T02:39:45;19.57;;;5.50;;
8285;SDS011;4181;43.416;24.598;2022-09-28T02:42:14;5.53;;;3.50;;
8285;SDS011;4181;43.416;24.598;2022-09-28T02:55:45;7.23;;;3.83;;
8285;SDS011;4181;43.416;24.598;2022-09-28T02:58:33;7.30;;;3.23;;
8285;SDS011;4181;43.416;24.598;2022-09-28T03:06:19;4.17;;;3.03;;
8285;SDS011;4181;43.416;24.598;2022-09-28T03:11:44;5.83;;;3.30;;
8285;SDS011;4181;43.416;24.598;2022-09-28T03:14:12;4.67;;;2.93;;
8285;SDS011;4181;43.416;24.598;2022-09-28T03:16:41;5.90;;;2.83;;
8285;SDS011;4181;43.416;24.598;2022-09-28T03:19:09;7.07;;;3.17;;
8285;SDS011;4181;43.416;24.598;2022-09-28T03:21:36;3.83;;;2.63;;
8285;SDS011;4181;43.416;24.598;2022-09-28T03:24:01;4.87;;;2.80;;
8285;SDS011;4181;43.416;24.598;2022-09-28T03:26:30;7.70;;;3.00;;
8285;SDS011;4181;43.416;24.598;2022-09-28T03:28:56;5.00;;;3.80;;
8285;SDS011;4181;43.416;24.598;2022-09-28T03:31:22;6.07;;;4.53;;
8285;SDS011;4181;43.416;24.598;2022-09-28T03:33:47;6.53;;;5.27;;
8285;SDS011;4181;43.416;24.598;2022-09-28T03:36:14;8.00;;;6.10;;
8285;SDS011;4181;43.416;24.598;2022-09-28T03:38:40;29.07;;;10.97;;
8285;SDS011;4181;43.416;24.598;2022-09-28T03:41:05;12.83;;;6.40;;
8285;SDS011;4181;43.416;24.598;2022-09-28T03:43:32;8.77;;;5.80;;
8285;SDS011;4181;43.416;24.598;2022-09-28T03:45:58;8.43;;;5.03;;
8285;SDS011;4181;43.416;24.598;2022-09-28T03:48:28;6.83;;;3.67;;
8285;SDS011;4181;43.416;24.598;2022-09-28T03:50:59;24.00;;;7.77;;
8285;SDS011;4181;43.416;24.598;2022-09-28T03:53:27;5.27;;;4.43;;
8285;SDS011;4181;43.416;24.598;2022-09-28T03:55:54;6.57;;;4.80;;
8285;SDS011;4181;43.416;24.598;2022-09-28T03:58:21;12.23;;;5.70;;
8285;SDS011;4181;43.416;24.598;2022-09-28T04:00:47;30.03;;;7.87;;
8285;SDS011;4181;43.416;24.598;2022-09-28T04:03:13;34.13;;;9.30;;
8285;SDS011;4181;43.416;24.598;2022-09-28T04:05:46;12.50;;;5.67;;
8285;SDS011;4181;43.416;24.598;2022-09-28T04:08:13;5.37;;;4.20;;
8285;SDS011;4181;43.416;24.598;2022-09-28T04:10:39;7.33;;;4.40;;
8285;SDS011;4181;43.416;24.598;2022-09-28T04:13:06;7.13;;;3.90;;
8285;SDS011;4181;43.416;24.598;2022-09-28T04:15:31;14.90;;;8.07;;
8285;SDS011;4181;43.416;24.598;2022-09-28T04:17:57;11.50;;;6.43;;
8285;SDS011;4181;43.416;24.598;2022-09-28T04:20:22;17.20;;;12.93;;
8285;SDS011;4181;43.416;24.598;2022-09-28T04:22:48;23.80;;;20.87;;
8285;SDS011;4181;43.416;24.598;2022-09-28T04:25:13;18.63;;;10.77;;
8285;SDS011;4181;43.416;24.598;2022-09-28T04:27:39;9.27;;;8.33;;
8285;SDS011;4181;43.416;24.598;2022-09-28T04:30:22;11.93;;;5.60;;
8285;SDS011;4181;43.416;24.598;2022-09-28T04:32:48;23.03;;;8.17;;
8285;SDS011;4181;43.416;24.598;2022-09-28T04:35:14;15.83;;;9.27;;
8285;SDS011;4181;43.416;24.598;2022-09-28T04:37:40;14.43;;;8.73;;
8285;SDS011;4181;43.416;24.598;2022-09-28T04:40:06;12.90;;;8.30;;
8285;SDS011;4181;43.416;24.598;2022-09-28T04:42:32;22.23;;;11.37;;
8285;SDS011;4181;43.416;24.598;2022-09-28T04:44:58;22.03;;;10.60;;
8285;SDS011;4181;43.416;24.598;2022-09-28T04:47:25;45.83;;;13.43;;
8285;SDS011;4181;43.416;24.598;2022-09-28T04:49:50;16.33;;;7.50;;
8285;SDS011;4181;43.416;24.598;2022-09-28T04:52:16;12.37;;;8.33;;
8285;SDS011;4181;43.416;24.598;2022-09-28T04:54:41;13.93;;;9.40;;
8285;SDS011;4181;43.416;24.598;2022-09-28T04:57:07;21.20;;;10.43;;
8285;SDS011;4181;43.416;24.598;2022-09-28T04:59:32;25.47;;;7.40;;
8285;SDS011;4181;43.416;24.598;2022-09-28T05:01:58;5.77;;;3.20;;
8285;SDS011;4181;43.416;24.598;2022-09-28T05:04:23;8.13;;;4.27;;
8285;SDS011;4181;43.416;24.598;2022-09-28T05:06:49;9.60;;;4.90;;
8285;SDS011;4181;43.416;24.598;2022-09-28T05:09:14;11.63;;;5.70;;
8285;SDS011;4181;43.416;24.598;2022-09-28T05:11:40;8.20;;;5.10;;
8285;SDS011;4181;43.416;24.598;2022-09-28T05:14:06;11.23;;;4.60;;
8285;SDS011;4181;43.416;24.598;2022-09-28T05:16:31;12.20;;;4.67;;
8285;SDS011;4181;43.416;24.598;2022-09-28T05:18:57;14.03;;;4.90;;
8285;SDS011;4181;43.416;24.598;2022-09-28T05:21:23;17.20;;;5.57;;
8285;SDS011;4181;43.416;24.598;2022-09-28T05:23:50;10.90;;;5.30;;
8285;SDS011;4181;43.416;24.598;2022-09-28T05:26:16;12.70;;;4.70;;
8285;SDS011;4181;43.416;24.598;2022-09-28T05:28:42;12.73;;;4.63;;
8285;SDS011;4181;43.416;24.598;2022-09-28T05:31:08;10.67;;;4.00;;
8285;SDS011;4181;43.416;24.598;2022-09-28T05:33:34;11.43;;;4.87;;
8285;SDS011;4181;43.416;24.598;2022-09-28T05:36:01;18.10;;;5.47;;
8285;SDS011;4181;43.416;24.598;2022-09-28T05:38:27;13.20;;;4.80;;
8285;SDS011;4181;43.416;24.598;2022-09-28T05:40:52;10.70;;;4.57;;
8285;SDS011;4181;43.416;24.598;2022-09-28T05:43:18;16.07;;;5.03;;
8285;SDS011;4181;43.416;24.598;2022-09-28T05:45:43;27.17;;;4.90;;
8285;SDS011;4181;43.416;24.598;2022-09-28T05:48:10;11.23;;;4.33;;
8285;SDS011;4181;43.416;24.598;2022-09-28T05:50:37;13.90;;;5.07;;
8285;SDS011;4181;43.416;24.598;2022-09-28T05:53:04;18.03;;;5.77;;
8285;SDS011;4181;43.416;24.598;2022-09-28T05:55:33;21.57;;;5.73;;
8285;SDS011;4181;43.416;24.598;2022-09-28T05:58:00;18.00;;;6.23;;
8285;SDS011;4181;43.416;24.598;2022-09-28T06:00:28;20.97;;;8.37;;
8285;SDS011;4181;43.416;24.598;2022-09-28T06:02:56;17.13;;;5.83;;
8285;SDS011;4181;43.416;24.598;2022-09-28T06:05:24;17.43;;;6.70;;
8285;SDS011;4181;43.416;24.598;2022-09-28T06:07:50;18.83;;;5.53;;
8285;SDS011;4181;43.416;24.598;2022-09-28T06:10:17;18.53;;;6.97;;
8285;SDS011;4181;43.416;24.598;2022-09-28T06:12:42;12.83;;;6.03;;
8285;SDS011;4181;43.416;24.598;2022-09-28T06:15:08;13.93;;;6.37;;
8285;SDS011;4181;43.416;24.598;2022-09-28T06:17:34;10.07;;;5.13;;
8285;SDS011;4181;43.416;24.598;2022-09-28T06:20:01;15.20;;;6.10;;
8285;SDS011;4181;43.416;24.598;2022-09-28T06:22:26;13.80;;;6.90;;
8285;SDS011;4181;43.416;24.598;2022-09-28T06:24:51;12.30;;;5.37;;
8285;SDS011;4181;43.416;24.598;2022-09-28T06:27:18;15.40;;;5.30;;
8285;SDS011;4181;43.416;24.598;2022-09-28T06:29:44;11.50;;;3.87;;
8285;SDS011;4181;43.416;24.598;2022-09-28T06:32:10;6.93;;;2.70;;
8285;SDS011;4181;43.416;24.598;2022-09-28T06:34:38;9.87;;;2.53;;
8285;SDS011;4181;43.416;24.598;2022-09-28T06:37:03;16.70;;;5.00;;
8285;SDS011;4181;43.416;24.598;2022-09-28T06:39:30;9.37;;;4.10;;
8285;SDS011;4181;43.416;24.598;2022-09-28T06:41:55;7.90;;;3.07;;
8285;SDS011;4181;43.416;24.598;2022-09-28T06:44:21;8.83;;;5.73;;
8285;SDS011;4181;43.416;24.598;2022-09-28T06:46:49;17.37;;;6.40;;
8285;SDS011;4181;43.416;24.598;2022-09-28T06:49:14;15.63;;;6.17;;
8285;SDS011;4181;43.416;24.598;2022-09-28T06:51:40;11.27;;;6.13;;
8285;SDS011;4181;43.416;24.598;2022-09-28T06:54:06;31.80;;;16.27;;
8285;SDS011;4181;43.416;24.598;2022-09-28T06:56:31;15.53;;;6.87;;
8285;SDS011;4181;43.416;24.598;2022-09-28T06:58:57;12.43;;;4.77;;
8285;SDS011;4181;43.416;24.598;2022-09-28T07:01:22;26.93;;;4.70;;
8285;SDS011;4181;43.416;24.598;2022-09-28T07:03:47;31.97;;;4.50;;
8285;SDS011;4181;43.416;24.598;2022-09-28T07:06:13;17.80;;;4.30;;
8285;SDS011;4181;43.416;24.598;2022-09-28T07:08:38;10.77;;;4.07;;
8285;SDS011;4181;43.416;24.598;2022-09-28T07:11:05;21.33;;;4.87;;
8285;SDS011;4181;43.416;24.598;2022-09-28T07:13:31;15.17;;;5.27;;
8285;SDS011;4181;43.416;24.598;2022-09-28T07:15:58;16.23;;;4.90;;
8285;SDS011;4181;43.416;24.598;2022-09-28T07:18:24;18.50;;;7.23;;
8285;SDS011;4181;43.416;24.598;2022-09-28T07:20:52;10.53;;;5.13;;
8285;SDS011;4181;43.416;24.598;2022-09-28T07:23:21;16.23;;;6.80;;
8285;SDS011;4181;43.416;24.598;2022-09-28T07:25:46;10.67;;;4.40;;
8285;SDS011;4181;43.416;24.598;2022-09-28T07:28:14;8.07;;;4.00;;
8285;SDS011;4181;43.416;24.598;2022-09-28T07:30:41;9.03;;;3.47;;
8285;SDS011;4181;43.416;24.598;2022-09-28T07:33:09;6.97;;;2.77;;
8285;SDS011;4181;43.416;24.598;2022-09-28T07:35:36;14.20;;;3.20;;
8285;SDS011;4181;43.416;24.598;2022-09-28T07:38:05;13.53;;;2.80;;
8285;SDS011;4181;43.416;24.598;2022-09-28T07:40:32;5.93;;;2.50;;
8285;SDS011;4181;43.416;24.598;2022-09-28T07:43:17;10.57;;;3.43;;
8285;SDS011;4181;43.416;24.598;2022-09-28T07:45:47;6.30;;;2.60;;
8285;SDS011;4181;43.416;24.598;2022-09-28T07:48:14;7.87;;;2.80;;
8285;SDS011;4181;43.416;24.598;2022-09-28T07:50:41;9.80;;;2.70;;
8285;SDS011;4181;43.416;24.598;2022-09-28T07:53:21;6.37;;;3.57;;
8285;SDS011;4181;43.416;24.598;2022-09-28T07:55:55;10.13;;;3.10;;
8285;SDS011;4181;43.416;24.598;2022-09-28T07:58:27;12.73;;;3.30;;
8285;SDS011;4181;43.416;24.598;2022-09-28T08:00:53;9.63;;;3.17;;
8285;SDS011;4181;43.416;24.598;2022-09-28T08:03:19;5.27;;;3.60;;
8285;SDS011;4181;43.416;24.598;2022-09-28T08:05:48;9.77;;;2.73;;
8285;SDS011;4181;43.416;24.598;2022-09-28T08:08:14;6.47;;;1.90;;
8285;SDS011;4181;43.416;24.598;2022-09-28T08:10:42;25.93;;;13.43;;
8285;SDS011;4181;43.416;24.598;2022-09-28T08:13:08;5.57;;;2.43;;
8285;SDS011;4181;43.416;24.598;2022-09-28T08:15:34;8.60;;;2.00;;
8285;SDS011;4181;43.416;24.598;2022-09-28T08:18:01;8.00;;;2.37;;
8285;SDS011;4181;43.416;24.598;2022-09-28T08:20:28;7.30;;;2.00;;
8285;SDS011;4181;43.416;24.598;2022-09-28T08:23:13;7.00;;;2.00;;
8285;SDS011;4181;43.416;24.598;2022-09-28T08:25:39;17.93;;;3.90;;
8285;SDS011;4181;43.416;24.598;2022-09-28T08:28:04;5.47;;;1.70;;
8285;SDS011;4181;43.416;24.598;2022-09-28T08:30:33;4.93;;;2.30;;
8285;SDS011;4181;43.416;24.598;2022-09-28T08:32:59;6.03;;;2.30;;
8285;SDS011;4181;43.416;24.598;2022-09-28T08:35:24;5.50;;;1.60;;
8285;SDS011;4181;43.416;24.598;2022-09-28T08:37:50;3.83;;;1.63;;
8285;SDS011;4181;43.416;24.598;2022-09-28T08:40:21;6.17;;;2.53;;
8285;SDS011;4181;43.416;24.598;2022-09-28T08:42:56;7.20;;;2.03;;
8285;SDS011;4181;43.416;24.598;2022-09-28T08:45:27;6.90;;;1.90;;
8285;SDS011;4181;43.416;24.598;2022-09-28T08:48:05;8.47;;;1.90;;
8285;SDS011;4181;43.416;24.598;2022-09-28T08:50:57;8.33;;;1.80;;
8285;SDS011;4181;43.416;24.598;2022-09-28T08:56:09;5.53;;;1.80;;
8285;SDS011;4181;43.416;24.598;2022-09-28T08:58:40;6.03;;;1.80;;
8285;SDS011;4181;43.416;24.598;2022-09-28T09:01:10;3.47;;;1.77;;
8285;SDS011;4181;43.416;24.598;2022-09-28T09:03:42;8.93;;;2.50;;
8285;SDS011;4181;43.416;24.598;2022-09-28T09:06:16;4.67;;;2.20;;
8285;SDS011;4181;43.416;24.598;2022-09-28T09:19:53;6.67;;;1.90;;
8285;SDS011;4181;43.416;24.598;2022-09-28T09:28:07;4.87;;;1.83;;
8285;SDS011;4181;43.416;24.598;2022-09-28T09:33:37;10.63;;;2.10;;
8285;SDS011;4181;43.416;24.598;2022-09-28T09:49:24;4.70;;;1.60;;
8285;SDS011;4181;43.416;24.598;2022-09-28T09:52:17;4.93;;;1.90;;
8285;SDS011;4181;43.416;24.598;2022-09-28T09:55:18;4.87;;;2.00;;
8285;SDS011;4181;43.416;24.598;2022-09-28T09:58:25;6.50;;;2.20;;
8285;SDS011;4181;43.416;24.598;2022-09-28T10:00:43;3.57;;;1.60;;
8285;SDS011;4181;43.416;24.598;2022-09-28T10:03:33;5.03;;;1.73;;
8285;SDS011;4181;43.416;24.598;2022-09-28T10:08:47;4.73;;;1.97;;
8285;SDS011;4181;43.416;24.598;2022-09-28T10:11:27;3.17;;;1.70;;
8285;SDS011;4181;43.416;24.598;2022-09-28T10:13:58;3.87;;;1.67;;
8285;SDS011;4181;43.416;24.598;2022-09-28T10:16:23;8.87;;;1.87;;
8285;SDS011;4181;43.416;24.598;2022-09-28T10:18:49;9.93;;;2.03;;
8285;SDS011;4181;43.416;24.598;2022-09-28T10:21:15;2.17;;;1.43;;
8285;SDS011;4181;43.416;24.598;2022-09-28T10:23:44;4.17;;;1.67;;
8285;SDS011;4181;43.416;24.598;2022-09-28T10:26:15;6.00;;;1.70;;
8285;SDS011;4181;43.416;24.598;2022-09-28T10:31:37;7.93;;;2.07;;
8285;SDS011;4181;43.416;24.598;2022-09-28T10:34:03;4.53;;;1.70;;
8285;SDS011;4181;43.416;24.598;2022-09-28T10:36:41;5.60;;;1.33;;
8285;SDS011;4181;43.416;24.598;2022-09-28T10:42:07;3.17;;;1.40;;
8285;SDS011;4181;43.416;24.598;2022-09-28T10:44:53;4.73;;;1.60;;
8285;SDS011;4181;43.416;24.598;2022-09-28T10:47:22;4.60;;;1.57;;
8285;SDS011;4181;43.416;24.598;2022-09-28T10:49:49;4.30;;;1.60;;
8285;SDS011;4181;43.416;24.598;2022-09-28T10:52:30;4.07;;;1.47;;
8285;SDS011;4181;43.416;24.598;2022-09-28T10:57:45;5.77;;;1.53;;
8285;SDS011;4181;43.416;24.598;2022-09-28T11:02:54;4.07;;;1.50;;
8285;SDS011;4181;43.416;24.598;2022-09-28T11:05:21;2.37;;;1.30;;
8285;SDS011;4181;43.416;24.598;2022-09-28T11:07:51;3.87;;;1.63;;
8285;SDS011;4181;43.416;24.598;2022-09-28T11:10:20;3.63;;;1.50;;
8285;SDS011;4181;43.416;24.598;2022-09-28T11:12:50;13.70;;;1.70;;
8285;SDS011;4181;43.416;24.598;2022-09-28T11:15:18;3.43;;;1.67;;
8285;SDS011;4181;43.416;24.598;2022-09-28T11:17:46;3.07;;;1.67;;
8285;SDS011;4181;43.416;24.598;2022-09-28T11:22:59;4.60;;;1.80;;
8285;SDS011;4181;43.416;24.598;2022-09-28T11:25:41;3.17;;;1.80;;
8285;SDS011;4181;43.416;24.598;2022-09-28T11:28:12;7.17;;;1.80;;
8285;SDS011;4181;43.416;24.598;2022-09-28T11:30:47;4.83;;;1.70;;
8285;SDS011;4181;43.416;24.598;2022-09-28T11:41:05;6.57;;;2.50;;
8285;SDS011;4181;43.416;24.598;2022-09-28T11:46:50;6.60;;;2.10;;
8285;SDS011;4181;43.416;24.598;2022-09-28T11:55:50;4.23;;;1.80;;
8285;SDS011;4181;43.416;24.598;2022-09-28T11:58:00;10.07;;;2.37;;
8285;SDS011;4181;43.416;24.598;2022-09-28T12:00:36;3.23;;;1.70;;
8285;SDS011;4181;43.416;24.598;2022-09-28T12:05:57;5.97;;;1.37;;
8285;SDS011;4181;43.416;24.598;2022-09-28T12:08:29;3.83;;;1.67;;
8285;SDS011;4181;43.416;24.598;2022-09-28T12:11:01;5.37;;;2.53;;
8285;SDS011;4181;43.416;24.598;2022-09-28T12:13:45;4.23;;;1.50;;
8285;SDS011;4181;43.416;24.598;2022-09-28T12:16:18;3.83;;;1.80;;
8285;SDS011;4181;43.416;24.598;2022-09-28T12:18:52;6.00;;;1.80;;
8285;SDS011;4181;43.416;24.598;2022-09-28T12:21:41;10.60;;;2.30;;
8285;SDS011;4181;43.416;24.598;2022-09-28T12:24:20;4.73;;;1.27;;
8285;SDS011;4181;43.416;24.598;2022-09-28T12:29:32;6.33;;;2.43;;
8285;SDS011;4181;43.416;24.598;2022-09-28T12:34:54;4.17;;;1.40;;
8285;SDS011;4181;43.416;24.598;2022-09-28T12:42:46;2.37;;;1.77;;
8285;SDS011;4181;43.416;24.598;2022-09-28T12:45:20;6.47;;;1.60;;
8285;SDS011;4181;43.416;24.598;2022-09-28T12:56:04;4.23;;;1.93;;
8285;SDS011;4181;43.416;24.598;2022-09-28T12:58:55;9.37;;;1.80;;
8285;SDS011;4181;43.416;24.598;2022-09-28T13:23:32;5.90;;;1.50;;
8285;SDS011;4181;43.416;24.598;2022-09-28T13:28:53;6.50;;;1.97;;
8285;SDS011;4181;43.416;24.598;2022-09-28T13:31:23;3.20;;;1.40;;
8285;SDS011;4181;43.416;24.598;2022-09-28T13:33:55;5.07;;;1.33;;
8285;SDS011;4181;43.416;24.598;2022-09-28T13:38:52;4.37;;;2.50;;
8285;SDS011;4181;43.416;24.598;2022-09-28T13:41:21;4.63;;;2.13;;
8285;SDS011;4181;43.416;24.598;2022-09-28T13:46:44;5.67;;;1.70;;
8285;SDS011;4181;43.416;24.598;2022-09-28T14:12:51;7.43;;;2.47;;
8285;SDS011;4181;43.416;24.598;2022-09-28T14:16:03;4.53;;;2.07;;
8285;SDS011;4181;43.416;24.598;2022-09-28T14:18:25;7.07;;;2.47;;
8285;SDS011;4181;43.416;24.598;2022-09-28T14:29:40;5.13;;;2.30;;
8285;SDS011;4181;43.416;24.598;2022-09-28T14:34:41;9.57;;;2.90;;
8285;SDS011;4181;43.416;24.598;2022-09-28T14:37:19;9.33;;;2.93;;
8285;SDS011;4181;43.416;24.598;2022-09-28T14:40:24;5.80;;;2.57;;
8285;SDS011;4181;43.416;24.598;2022-09-28T14:48:54;2.60;;;1.97;;
8285;SDS011;4181;43.416;24.598;2022-09-28T14:54:02;3.47;;;1.53;;
8285;SDS011;4181;43.416;24.598;2022-09-28T14:56:42;5.77;;;2.30;;
8285;SDS011;4181;43.416;24.598;2022-09-28T14:59:12;16.77;;;3.77;;
8285;SDS011;4181;43.416;24.598;2022-09-28T15:01:43;8.87;;;2.10;;
8285;SDS011;4181;43.416;24.598;2022-09-28T15:04:14;16.50;;;2.53;;
8285;SDS011;4181;43.416;24.598;2022-09-28T15:06:45;8.77;;;2.10;;
8285;SDS011;4181;43.416;24.598;2022-09-28T15:09:27;3.93;;;1.70;;
8285;SDS011;4181;43.416;24.598;2022-09-28T15:12:03;5.63;;;2.10;;
8285;SDS011;4181;43.416;24.598;2022-09-28T15:14:44;4.13;;;1.70;;
8285;SDS011;4181;43.416;24.598;2022-09-28T15:17:32;6.20;;;1.87;;
8285;SDS011;4181;43.416;24.598;2022-09-28T15:22:48;11.67;;;3.70;;
8285;SDS011;4181;43.416;24.598;2022-09-28T15:25:17;6.67;;;3.53;;
8285;SDS011;4181;43.416;24.598;2022-09-28T15:27:44;6.80;;;2.60;;
8285;SDS011;4181;43.416;24.598;2022-09-28T15:30:19;9.67;;;2.83;;
8285;SDS011;4181;43.416;24.598;2022-09-28T15:32:50;17.03;;;5.07;;
8285;SDS011;4181;43.416;24.598;2022-09-28T15:35:21;8.53;;;3.03;;
8285;SDS011;4181;43.416;24.598;2022-09-28T15:37:50;14.20;;;2.93;;
8285;SDS011;4181;43.416;24.598;2022-09-28T15:40:28;16.03;;;4.00;;
8285;SDS011;4181;43.416;24.598;2022-09-28T15:42:56;8.50;;;2.83;;
8285;SDS011;4181;43.416;24.598;2022-09-28T15:45:40;26.57;;;7.40;;
8285;SDS011;4181;43.416;24.598;2022-09-28T15:48:25;27.33;;;7.30;;
8285;SDS011;4181;43.416;24.598;2022-09-28T15:51:10;10.40;;;3.83;;
8285;SDS011;4181;43.416;24.598;2022-09-28T15:53:44;19.97;;;5.37;;
8285;SDS011;4181;43.416;24.598;2022-09-28T15:56:17;38.67;;;7.43;;
8285;SDS011;4181;43.416;24.598;2022-09-28T15:58:43;11.90;;;3.73;;
8285;SDS011;4181;43.416;24.598;2022-09-28T16:01:34;31.60;;;7.87;;
8285;SDS011;4181;43.416;24.598;2022-09-28T16:07:17;27.10;;;7.60;;
8285;SDS011;4181;43.416;24.598;2022-09-28T16:12:25;18.00;;;5.23;;
8285;SDS011;4181;43.416;24.598;2022-09-28T16:15:02;27.40;;;6.30;;
8285;SDS011;4181;43.416;24.598;2022-09-28T16:17:31;51.03;;;9.17;;
8285;SDS011;4181;43.416;24.598;2022-09-28T16:20:45;18.67;;;5.60;;
8285;SDS011;4181;43.416;24.598;2022-09-28T16:22:57;14.37;;;5.13;;
8285;SDS011;4181;43.416;24.598;2022-09-28T16:25:30;8.40;;;4.27;;
8285;SDS011;4181;43.416;24.598;2022-09-28T16:28:01;12.73;;;4.90;;
8285;SDS011;4181;43.416;24.598;2022-09-28T16:30:30;10.47;;;3.40;;
8285;SDS011;4181;43.416;24.598;2022-09-28T16:32:58;12.47;;;3.90;;
8285;SDS011;4181;43.416;24.598;2022-09-28T16:35:48;9.17;;;3.90;;
8285;SDS011;4181;43.416;24.598;2022-09-28T16:38:11;10.93;;;4.73;;
8285;SDS011;4181;43.416;24.598;2022-09-28T16:40:39;9.40;;;3.90;;
8285;SDS011;4181;43.416;24.598;2022-09-28T16:43:06;6.93;;;3.43;;
8285;SDS011;4181;43.416;24.598;2022-09-28T16:45:37;14.27;;;3.87;;
8285;SDS011;4181;43.416;24.598;2022-09-28T16:48:03;23.70;;;6.60;;
8285;SDS011;4181;43.416;24.598;2022-09-28T16:50:28;8.00;;;4.00;;
8285;SDS011;4181;43.416;24.598;2022-09-28T16:53:05;10.07;;;2.90;;
8285;SDS011;4181;43.416;24.598;2022-09-28T16:55:56;7.60;;;2.63;;
8285;SDS011;4181;43.416;24.598;2022-09-28T16:58:22;10.33;;;2.50;;
8285;SDS011;4181;43.416;24.598;2022-09-28T17:00:49;9.43;;;3.40;;
8285;SDS011;4181;43.416;24.598;2022-09-28T17:03:16;17.27;;;4.50;;
8285;SDS011;4181;43.416;24.598;2022-09-28T17:05:47;8.63;;;3.87;;
8285;SDS011;4181;43.416;24.598;2022-09-28T17:08:14;13.80;;;3.40;;
8285;SDS011;4181;43.416;24.598;2022-09-28T17:10:55;9.37;;;3.80;;
8285;SDS011;4181;43.416;24.598;2022-09-28T17:13:24;11.40;;;4.50;;
8285;SDS011;4181;43.416;24.598;2022-09-28T17:15:55;7.87;;;4.00;;
8285;SDS011;4181;43.416;24.598;2022-09-28T17:18:21;6.60;;;3.63;;
8285;SDS011;4181;43.416;24.598;2022-09-28T17:20:48;7.50;;;3.47;;
8285;SDS011;4181;43.416;24.598;2022-09-28T17:23:16;7.53;;;3.93;;
8285;SDS011;4181;43.416;24.598;2022-09-28T17:25:42;14.67;;;4.07;;
8285;SDS011;4181;43.416;24.598;2022-09-28T17:30:54;6.03;;;2.60;;
8285;SDS011;4181;43.416;24.598;2022-09-28T17:33:20;6.10;;;3.40;;
8285;SDS011;4181;43.416;24.598;2022-09-28T17:35:45;4.90;;;3.10;;
8285;SDS011;4181;43.416;24.598;2022-09-28T17:38:12;7.17;;;3.20;;
8285;SDS011;4181;43.416;24.598;2022-09-28T17:40:40;8.87;;;3.70;;
8285;SDS011;4181;43.416;24.598;2022-09-28T17:43:09;8.63;;;3.93;;
8285;SDS011;4181;43.416;24.598;2022-09-28T17:45:36;4.03;;;2.83;;
8285;SDS011;4181;43.416;24.598;2022-09-28T17:48:06;5.73;;;2.97;;
8285;SDS011;4181;43.416;24.598;2022-09-28T17:50:37;7.07;;;3.30;;
8285;SDS011;4181;43.416;24.598;2022-09-28T17:53:02;8.73;;;3.47;;
8285;SDS011;4181;43.416;24.598;2022-09-28T17:55:31;10.90;;;4.03;;
8285;SDS011;4181;43.416;24.598;2022-09-28T17:58:06;10.40;;;4.17;;
8285;SDS011;4181;43.416;24.598;2022-09-28T18:00:39;7.83;;;2.63;;
8285;SDS011;4181;43.416;24.598;2022-09-28T18:03:07;9.60;;;3.33;;
8285;SDS011;4181;43.416;24.598;2022-09-28T18:05:38;10.27;;;2.80;;
8285;SDS011;4181;43.416;24.598;2022-09-28T18:08:03;24.20;;;7.77;;
8285;SDS011;4181;43.416;24.598;2022-09-28T18:10:29;15.37;;;4.77;;
8285;SDS011;4181;43.416;24.598;2022-09-28T18:13:03;6.60;;;3.33;;
8285;SDS011;4181;43.416;24.598;2022-09-28T18:15:28;18.00;;;7.53;;
8285;SDS011;4181;43.416;24.598;2022-09-28T18:17:53;11.67;;;3.60;;
8285;SDS011;4181;43.416;24.598;2022-09-28T18:20:19;16.23;;;7.90;;
8285;SDS011;4181;43.416;24.598;2022-09-28T18:22:44;8.00;;;4.80;;
8285;SDS011;4181;43.416;24.598;2022-09-28T18:25:10;5.47;;;3.00;;
8285;SDS011;4181;43.416;24.598;2022-09-28T18:27:35;7.33;;;2.70;;
8285;SDS011;4181;43.416;24.598;2022-09-28T18:30:01;7.53;;;3.50;;
8285;SDS011;4181;43.416;24.598;2022-09-28T18:32:27;6.07;;;3.07;;
8285;SDS011;4181;43.416;24.598;2022-09-28T18:34:52;8.63;;;2.60;;
8285;SDS011;4181;43.416;24.598;2022-09-28T18:37:18;3.63;;;2.50;;
8285;SDS011;4181;43.416;24.598;2022-09-28T18:39:44;9.33;;;4.23;;
8285;SDS011;4181;43.416;24.598;2022-09-28T18:42:09;8.17;;;2.43;;
8285;SDS011;4181;43.416;24.598;2022-09-28T18:44:35;11.20;;;3.30;;
8285;SDS011;4181;43.416;24.598;2022-09-28T18:47:02;17.60;;;5.90;;
8285;SDS011;4181;43.416;24.598;2022-09-28T18:49:29;7.37;;;4.23;;
8285;SDS011;4181;43.416;24.598;2022-09-28T18:51:54;9.33;;;3.30;;
8285;SDS011;4181;43.416;24.598;2022-09-28T18:54:20;9.27;;;3.50;;